sensor_id;sensor_type;location;lat;lon;timestamp;temperature;humidity
46898;DHT22;32646;50.958;6.258;2023-02-15T00:00:08;1.40;99.90
46898;DHT22;32646;50.958;6.258;2023-02-15T00:02:35;1.40;99.90
46898;DHT22;32646;50.958;6.258;2023-02-15T00:05:02;1.30;99.90
46898;DHT22;32646;50.958;6.258;2023-02-15T00:07:28;1.20;99.90
46898;DHT22;32646;50.958;6.258;2023-02-15T00:09:55;1.20;99.90
46898;DHT22;32646;50.958;6.258;2023-02-15T00:12:21;1.10;99.90
46898;DHT22;32646;50.958;6.258;2023-02-15T00:14:48;1.20;99.90
46898;DHT22;32646;50.958;6.258;2023-02-15T00:17:15;1.10;99.90
46898;DHT22;32646;50.958;6.258;2023-02-15T00:19:41;1.20;99.90
46898;DHT22;32646;50.958;6.258;2023-02-15T00:22:08;1.20;99.90
46898;DHT22;32646;50.958;6.258;2023-02-15T00:24:35;1.20;99.90
46898;DHT22;32646;50.958;6.258;2023-02-15T00:27:01;1.20;99.90
46898;DHT22;32646;50.958;6.258;2023-02-15T00:29:28;1.20;99.90
46898;DHT22;32646;50.958;6.258;2023-02-15T00:31:55;1.10;99.90
46898;DHT22;32646;50.958;6.258;2023-02-15T00:34:24;1.00;99.90
46898;DHT22;32646;50.958;6.258;2023-02-15T00:36:51;0.90;99.90
46898;DHT22;32646;50.958;6.258;2023-02-15T00:39:19;0.90;99.90
46898;DHT22;32646;50.958;6.258;2023-02-15T00:41:46;0.90;99.90
46898;DHT22;32646;50.958;6.258;2023-02-15T00:44:14;0.80;99.90
46898;DHT22;32646;50.958;6.258;2023-02-15T00:46:41;0.90;99.90
46898;DHT22;32646;50.958;6.258;2023-02-15T00:49:08;0.90;99.90
46898;DHT22;32646;50.958;6.258;2023-02-15T00:51:35;0.90;99.90
46898;DHT22;32646;50.958;6.258;2023-02-15T00:54:01;0.90;99.90
46898;DHT22;32646;50.958;6.258;2023-02-15T00:56:28;0.90;99.90
46898;DHT22;32646;50.958;6.258;2023-02-15T00:58:55;0.90;99.90
46898;DHT22;32646;50.958;6.258;2023-02-15T01:01:21;0.80;99.90
46898;DHT22;32646;50.958;6.258;2023-02-15T01:03:49;0.70;99.90
46898;DHT22;32646;50.958;6.258;2023-02-15T01:06:16;0.70;99.90
46898;DHT22;32646;50.958;6.258;2023-02-15T01:08:45;0.70;99.90
46898;DHT22;32646;50.958;6.258;2023-02-15T01:11:16;0.80;99.90
46898;DHT22;32646;50.958;6.258;2023-02-15T01:13:43;0.70;99.90
46898;DHT22;32646;50.958;6.258;2023-02-15T01:16:09;0.60;99.90
46898;DHT22;32646;50.958;6.258;2023-02-15T01:18:36;0.60;99.90
46898;DHT22;32646;50.958;6.258;2023-02-15T01:21:13;0.60;99.90
46898;DHT22;32646;50.958;6.258;2023-02-15T01:23:41;0.50;99.90
46898;DHT22;32646;50.958;6.258;2023-02-15T01:26:09;0.50;99.90
46898;DHT22;32646;50.958;6.258;2023-02-15T01:28:36;0.50;99.90
46898;DHT22;32646;50.958;6.258;2023-02-15T01:31:07;0.50;99.90
46898;DHT22;32646;50.958;6.258;2023-02-15T01:33:35;0.50;99.90
46898;DHT22;32646;50.958;6.258;2023-02-15T01:36:02;0.40;99.90
46898;DHT22;32646;50.958;6.258;2023-02-15T01:38:29;0.30;99.90
46898;DHT22;32646;50.958;6.258;2023-02-15T01:40:56;0.40;99.90
46898;DHT22;32646;50.958;6.258;2023-02-15T01:43:42;0.40;99.90
46898;DHT22;32646;50.958;6.258;2023-02-15T01:46:10;0.40;99.90
46898;DHT22;32646;50.958;6.258;2023-02-15T01:48:50;0.30;99.90
46898;DHT22;32646;50.958;6.258;2023-02-15T01:51:21;0.30;99.90
46898;DHT22;32646;50.958;6.258;2023-02-15T01:53:57;0.20;99.90
46898;DHT22;32646;50.958;6.258;2023-02-15T01:56:28;0.30;99.90
46898;DHT22;32646;50.958;6.258;2023-02-15T01:58:57;0.20;99.90
46898;DHT22;32646;50.958;6.258;2023-02-15T02:01:25;0.10;99.90
46898;DHT22;32646;50.958;6.258;2023-02-15T02:06:29;-0.10;99.90
46898;DHT22;32646;50.958;6.258;2023-02-15T02:08:56;-0.10;99.90
46898;DHT22;32646;50.958;6.258;2023-02-15T02:11:23;-0.20;99.90
46898;DHT22;32646;50.958;6.258;2023-02-15T02:13:51;-0.20;99.90
46898;DHT22;32646;50.958;6.258;2023-02-15T02:16:32;-0.10;99.90
46898;DHT22;32646;50.958;6.258;2023-02-15T02:28:09;-0.30;99.90
46898;DHT22;32646;50.958;6.258;2023-02-15T02:30:54;-0.40;99.90
46898;DHT22;32646;50.958;6.258;2023-02-15T02:33:33;-0.40;99.90
46898;DHT22;32646;50.958;6.258;2023-02-15T02:39:09;-0.50;99.90
46898;DHT22;32646;50.958;6.258;2023-02-15T02:44:48;-0.40;99.90
46898;DHT22;32646;50.958;6.258;2023-02-15T02:47:22;-0.20;99.90
46898;DHT22;32646;50.958;6.258;2023-02-15T02:49:57;-0.20;99.90
46898;DHT22;32646;50.958;6.258;2023-02-15T02:52:46;-0.10;99.90
46898;DHT22;32646;50.958;6.258;2023-02-15T02:55:22;-0.10;99.90
46898;DHT22;32646;50.958;6.258;2023-02-15T02:58:25;-0.10;99.90
46898;DHT22;32646;50.958;6.258;2023-02-15T03:01:17;0.00;99.90
46898;DHT22;32646;50.958;6.258;2023-02-15T03:03:52;0.00;99.90
46898;DHT22;32646;50.958;6.258;2023-02-15T03:06:30;0.00;99.90
46898;DHT22;32646;50.958;6.258;2023-02-15T03:09:06;0.00;99.90
46898;DHT22;32646;50.958;6.258;2023-02-15T03:11:34;0.00;99.90
46898;DHT22;32646;50.958;6.258;2023-02-15T03:14:01;-0.20;99.90
46898;DHT22;32646;50.958;6.258;2023-02-15T03:16:27;-0.30;99.90
46898;DHT22;32646;50.958;6.258;2023-02-15T03:19:09;-0.30;99.90
46898;DHT22;32646;50.958;6.258;2023-02-15T03:21:44;-0.20;99.90
46898;DHT22;32646;50.958;6.258;2023-02-15T03:24:16;-0.10;99.90
46898;DHT22;32646;50.958;6.258;2023-02-15T03:26:46;-0.10;99.90
46898;DHT22;32646;50.958;6.258;2023-02-15T03:29:15;-0.10;99.90
46898;DHT22;32646;50.958;6.258;2023-02-15T03:31:45;-0.10;99.90
46898;DHT22;32646;50.958;6.258;2023-02-15T03:34:13;-0.10;99.90
46898;DHT22;32646;50.958;6.258;2023-02-15T03:37:53;-0.20;99.90
46898;DHT22;32646;50.958;6.258;2023-02-15T03:40:00;-0.20;99.90
46898;DHT22;32646;50.958;6.258;2023-02-15T03:42:31;-0.30;99.90
46898;DHT22;32646;50.958;6.258;2023-02-15T03:45:11;-0.30;99.90
46898;DHT22;32646;50.958;6.258;2023-02-15T03:47:44;-0.30;99.90
46898;DHT22;32646;50.958;6.258;2023-02-15T03:50:18;-0.20;99.90
46898;DHT22;32646;50.958;6.258;2023-02-15T03:52:45;-0.20;99.90
46898;DHT22;32646;50.958;6.258;2023-02-15T03:55:12;-0.20;99.90
46898;DHT22;32646;50.958;6.258;2023-02-15T03:57:39;-0.10;99.90
46898;DHT22;32646;50.958;6.258;2023-02-15T04:00:16;-0.10;99.90
46898;DHT22;32646;50.958;6.258;2023-02-15T04:05:39;-0.10;99.90
46898;DHT22;32646;50.958;6.258;2023-02-15T04:08:06;-0.10;99.90
46898;DHT22;32646;50.958;6.258;2023-02-15T04:10:33;-0.10;99.90
46898;DHT22;32646;50.958;6.258;2023-02-15T04:12:59;-0.10;99.90
46898;DHT22;32646;50.958;6.258;2023-02-15T04:15:25;-0.20;99.90
46898;DHT22;32646;50.958;6.258;2023-02-15T04:17:52;-0.20;99.90
46898;DHT22;32646;50.958;6.258;2023-02-15T04:20:18;-0.30;99.90
46898;DHT22;32646;50.958;6.258;2023-02-15T04:22:45;-0.30;99.90
46898;DHT22;32646;50.958;6.258;2023-02-15T04:25:11;-0.30;99.90
46898;DHT22;32646;50.958;6.258;2023-02-15T04:27:40;-0.30;99.90
46898;DHT22;32646;50.958;6.258;2023-02-15T04:30:07;-0.30;99.90
46898;DHT22;32646;50.958;6.258;2023-02-15T04:32:34;-0.20;99.90
46898;DHT22;32646;50.958;6.258;2023-02-15T04:35:01;-0.20;99.90
46898;DHT22;32646;50.958;6.258;2023-02-15T04:37:27;-0.20;99.90
46898;DHT22;32646;50.958;6.258;2023-02-15T04:39:54;-0.20;99.90
46898;DHT22;32646;50.958;6.258;2023-02-15T04:42:20;-0.20;99.90
46898;DHT22;32646;50.958;6.258;2023-02-15T04:44:47;-0.20;99.90
46898;DHT22;32646;50.958;6.258;2023-02-15T04:47:13;-0.30;99.90
46898;DHT22;32646;50.958;6.258;2023-02-15T04:49:40;-0.30;99.90
46898;DHT22;32646;50.958;6.258;2023-02-15T04:52:06;-0.50;99.90
46898;DHT22;32646;50.958;6.258;2023-02-15T04:54:33;-0.50;99.90
46898;DHT22;32646;50.958;6.258;2023-02-15T04:57:00;-0.50;99.90
46898;DHT22;32646;50.958;6.258;2023-02-15T04:59:26;-0.50;99.90
46898;DHT22;32646;50.958;6.258;2023-02-15T05:01:53;-0.50;99.90
46898;DHT22;32646;50.958;6.258;2023-02-15T05:04:19;-0.50;99.90
46898;DHT22;32646;50.958;6.258;2023-02-15T05:06:46;-0.40;99.90
46898;DHT22;32646;50.958;6.258;2023-02-15T05:09:12;-0.40;99.90
46898;DHT22;32646;50.958;6.258;2023-02-15T05:11:39;-0.40;99.90
46898;DHT22;32646;50.958;6.258;2023-02-15T05:14:05;-0.40;99.90
46898;DHT22;32646;50.958;6.258;2023-02-15T05:16:32;-0.30;99.90
46898;DHT22;32646;50.958;6.258;2023-02-15T05:18:59;-0.30;99.90
46898;DHT22;32646;50.958;6.258;2023-02-15T05:21:25;-0.20;99.90
46898;DHT22;32646;50.958;6.258;2023-02-15T05:23:52;-0.30;99.90
46898;DHT22;32646;50.958;6.258;2023-02-15T05:26:21;-0.30;99.90
46898;DHT22;32646;50.958;6.258;2023-02-15T05:28:47;-0.30;99.90
46898;DHT22;32646;50.958;6.258;2023-02-15T05:31:16;-0.30;99.90
46898;DHT22;32646;50.958;6.258;2023-02-15T05:33:44;-0.30;99.90
46898;DHT22;32646;50.958;6.258;2023-02-15T05:36:11;-0.30;99.90
46898;DHT22;32646;50.958;6.258;2023-02-15T05:38:38;-0.30;99.90
46898;DHT22;32646;50.958;6.258;2023-02-15T05:41:06;-0.30;99.90
46898;DHT22;32646;50.958;6.258;2023-02-15T05:43:33;-0.30;99.90
46898;DHT22;32646;50.958;6.258;2023-02-15T05:45:59;-0.40;99.90
46898;DHT22;32646;50.958;6.258;2023-02-15T05:48:27;-0.30;99.90
46898;DHT22;32646;50.958;6.258;2023-02-15T05:50:59;-0.30;99.90
46898;DHT22;32646;50.958;6.258;2023-02-15T05:53:27;-0.40;99.90
46898;DHT22;32646;50.958;6.258;2023-02-15T05:55:54;-0.40;99.90
46898;DHT22;32646;50.958;6.258;2023-02-15T05:58:21;-0.50;99.90
46898;DHT22;32646;50.958;6.258;2023-02-15T06:00:47;-0.50;99.90
46898;DHT22;32646;50.958;6.258;2023-02-15T06:03:14;-0.50;99.90
46898;DHT22;32646;50.958;6.258;2023-02-15T06:05:40;-0.50;99.90
46898;DHT22;32646;50.958;6.258;2023-02-15T06:08:07;-0.50;99.90
46898;DHT22;32646;50.958;6.258;2023-02-15T06:10:33;-0.50;99.90
46898;DHT22;32646;50.958;6.258;2023-02-15T06:13:00;-0.50;99.90
46898;DHT22;32646;50.958;6.258;2023-02-15T06:15:26;-0.50;99.90
46898;DHT22;32646;50.958;6.258;2023-02-15T06:17:53;-0.50;99.90
46898;DHT22;32646;50.958;6.258;2023-02-15T06:20:19;-0.50;99.90
46898;DHT22;32646;50.958;6.258;2023-02-15T06:22:46;-0.50;99.90
46898;DHT22;32646;50.958;6.258;2023-02-15T06:25:12;-0.50;99.90
46898;DHT22;32646;50.958;6.258;2023-02-15T06:27:41;-0.40;99.90
46898;DHT22;32646;50.958;6.258;2023-02-15T06:30:09;-0.40;99.90
46898;DHT22;32646;50.958;6.258;2023-02-15T06:32:36;-0.40;99.90
46898;DHT22;32646;50.958;6.258;2023-02-15T06:35:03;-0.40;99.90
46898;DHT22;32646;50.958;6.258;2023-02-15T06:37:30;-0.40;99.90
46898;DHT22;32646;50.958;6.258;2023-02-15T06:39:56;-0.40;99.90
46898;DHT22;32646;50.958;6.258;2023-02-15T06:42:24;-0.50;99.90
46898;DHT22;32646;50.958;6.258;2023-02-15T06:44:51;-0.50;99.90
46898;DHT22;32646;50.958;6.258;2023-02-15T06:47:17;-0.50;99.90
46898;DHT22;32646;50.958;6.258;2023-02-15T06:49:44;-0.40;99.90
46898;DHT22;32646;50.958;6.258;2023-02-15T06:52:10;-0.40;99.90
46898;DHT22;32646;50.958;6.258;2023-02-15T06:54:39;-0.50;99.90
46898;DHT22;32646;50.958;6.258;2023-02-15T06:57:06;-0.40;99.90
46898;DHT22;32646;50.958;6.258;2023-02-15T06:59:32;-0.40;99.90
46898;DHT22;32646;50.958;6.258;2023-02-15T07:01:59;-0.40;99.90
46898;DHT22;32646;50.958;6.258;2023-02-15T07:04:25;-0.40;99.90
46898;DHT22;32646;50.958;6.258;2023-02-15T07:06:52;-0.40;99.90
46898;DHT22;32646;50.958;6.258;2023-02-15T07:09:19;-0.40;99.90
46898;DHT22;32646;50.958;6.258;2023-02-15T07:11:46;-0.40;99.90
46898;DHT22;32646;50.958;6.258;2023-02-15T07:14:12;-0.30;99.90
46898;DHT22;32646;50.958;6.258;2023-02-15T07:16:39;-0.30;99.90
46898;DHT22;32646;50.958;6.258;2023-02-15T07:19:05;-0.20;99.90
46898;DHT22;32646;50.958;6.258;2023-02-15T07:21:32;-0.20;99.90
46898;DHT22;32646;50.958;6.258;2023-02-15T07:23:59;-0.10;99.90
46898;DHT22;32646;50.958;6.258;2023-02-15T07:26:26;0.00;99.90
46898;DHT22;32646;50.958;6.258;2023-02-15T07:28:52;0.00;99.90
46898;DHT22;32646;50.958;6.258;2023-02-15T07:31:19;0.20;99.90
46898;DHT22;32646;50.958;6.258;2023-02-15T07:33:45;0.90;99.90
46898;DHT22;32646;50.958;6.258;2023-02-15T07:36:12;1.40;99.90
46898;DHT22;32646;50.958;6.258;2023-02-15T07:38:40;1.90;99.90
46898;DHT22;32646;50.958;6.258;2023-02-15T07:41:09;2.30;99.90
46898;DHT22;32646;50.958;6.258;2023-02-15T07:43:37;2.60;99.90
46898;DHT22;32646;50.958;6.258;2023-02-15T07:46:07;2.70;99.90
46898;DHT22;32646;50.958;6.258;2023-02-15T07:48:35;2.80;99.90
46898;DHT22;32646;50.958;6.258;2023-02-15T07:51:05;2.80;99.90
46898;DHT22;32646;50.958;6.258;2023-02-15T07:53:32;2.60;99.90
46898;DHT22;32646;50.958;6.258;2023-02-15T07:56:04;2.30;99.90
46898;DHT22;32646;50.958;6.258;2023-02-15T07:58:32;1.80;99.90
46898;DHT22;32646;50.958;6.258;2023-02-15T08:00:59;1.50;99.90
46898;DHT22;32646;50.958;6.258;2023-02-15T08:03:26;1.20;99.90
46898;DHT22;32646;50.958;6.258;2023-02-15T08:05:57;1.20;99.90
46898;DHT22;32646;50.958;6.258;2023-02-15T08:08:26;1.20;99.90
46898;DHT22;32646;50.958;6.258;2023-02-15T08:10:53;1.30;99.90
46898;DHT22;32646;50.958;6.258;2023-02-15T08:13:20;1.40;99.90
46898;DHT22;32646;50.958;6.258;2023-02-15T08:15:50;1.70;99.90
46898;DHT22;32646;50.958;6.258;2023-02-15T08:18:17;2.00;99.90
46898;DHT22;32646;50.958;6.258;2023-02-15T08:20:49;2.40;99.90
46898;DHT22;32646;50.958;6.258;2023-02-15T08:23:15;3.40;99.90
46898;DHT22;32646;50.958;6.258;2023-02-15T08:25:42;4.00;99.90
46898;DHT22;32646;50.958;6.258;2023-02-15T08:28:08;4.50;99.90
46898;DHT22;32646;50.958;6.258;2023-02-15T08:30:35;4.60;99.90
46898;DHT22;32646;50.958;6.258;2023-02-15T08:33:02;5.20;99.90
46898;DHT22;32646;50.958;6.258;2023-02-15T08:35:29;5.40;99.90
46898;DHT22;32646;50.958;6.258;2023-02-15T08:37:55;5.50;99.90
46898;DHT22;32646;50.958;6.258;2023-02-15T08:40:22;5.40;99.90
46898;DHT22;32646;50.958;6.258;2023-02-15T08:42:48;5.50;99.90
46898;DHT22;32646;50.958;6.258;2023-02-15T08:45:15;5.40;99.90
46898;DHT22;32646;50.958;6.258;2023-02-15T08:47:41;5.60;99.90
46898;DHT22;32646;50.958;6.258;2023-02-15T08:50:08;5.90;99.90
46898;DHT22;32646;50.958;6.258;2023-02-15T08:52:35;6.70;99.90
46898;DHT22;32646;50.958;6.258;2023-02-15T08:55:01;7.20;99.90
46898;DHT22;32646;50.958;6.258;2023-02-15T08:57:28;6.50;99.90
46898;DHT22;32646;50.958;6.258;2023-02-15T08:59:54;6.20;99.90
46898;DHT22;32646;50.958;6.258;2023-02-15T09:02:21;5.70;99.90
46898;DHT22;32646;50.958;6.258;2023-02-15T09:04:47;5.70;99.90
46898;DHT22;32646;50.958;6.258;2023-02-15T09:07:14;5.70;99.90
46898;DHT22;32646;50.958;6.258;2023-02-15T09:09:40;5.70;99.90
46898;DHT22;32646;50.958;6.258;2023-02-15T09:12:07;5.90;99.90
46898;DHT22;32646;50.958;6.258;2023-02-15T09:14:33;5.80;99.90
46898;DHT22;32646;50.958;6.258;2023-02-15T09:17:00;5.70;99.90
46898;DHT22;32646;50.958;6.258;2023-02-15T09:19:26;6.00;99.90
46898;DHT22;32646;50.958;6.258;2023-02-15T09:21:53;6.20;99.90
46898;DHT22;32646;50.958;6.258;2023-02-15T09:24:20;6.00;99.90
46898;DHT22;32646;50.958;6.258;2023-02-15T09:26:47;5.70;99.90
46898;DHT22;32646;50.958;6.258;2023-02-15T09:29:15;5.60;99.90
46898;DHT22;32646;50.958;6.258;2023-02-15T09:31:45;5.90;99.90
46898;DHT22;32646;50.958;6.258;2023-02-15T09:34:15;6.20;99.90
46898;DHT22;32646;50.958;6.258;2023-02-15T09:36:42;6.80;99.90
46898;DHT22;32646;50.958;6.258;2023-02-15T09:39:20;6.70;99.90
46898;DHT22;32646;50.958;6.258;2023-02-15T09:47:37;7.30;99.90
46898;DHT22;32646;50.958;6.258;2023-02-15T09:58:50;8.40;99.90
46898;DHT22;32646;50.958;6.258;2023-02-15T10:06:53;8.30;99.90
46898;DHT22;32646;50.958;6.258;2023-02-15T10:09:58;7.90;99.90
46898;DHT22;32646;50.958;6.258;2023-02-15T10:13:02;8.30;99.90
46898;DHT22;32646;50.958;6.258;2023-02-15T10:15:46;8.70;99.90
46898;DHT22;32646;50.958;6.258;2023-02-15T10:21:12;9.40;99.90
46898;DHT22;32646;50.958;6.258;2023-02-15T10:26:31;9.50;99.90
46898;DHT22;32646;50.958;6.258;2023-02-15T10:29:10;9.70;99.90
46898;DHT22;32646;50.958;6.258;2023-02-15T10:31:47;9.80;99.90
46898;DHT22;32646;50.958;6.258;2023-02-15T10:40:26;10.90;99.90
46898;DHT22;32646;50.958;6.258;2023-02-15T10:43:20;11.30;99.90
46898;DHT22;32646;50.958;6.258;2023-02-15T10:57:25;12.00;99.00
46898;DHT22;32646;50.958;6.258;2023-02-15T11:00:45;12.40;98.00
46898;DHT22;32646;50.958;6.258;2023-02-15T11:08:18;12.50;98.40
46898;DHT22;32646;50.958;6.258;2023-02-15T11:10:55;12.60;96.90
46898;DHT22;32646;50.958;6.258;2023-02-15T11:13:29;13.40;96.30
46898;DHT22;32646;50.958;6.258;2023-02-15T11:16:13;12.80;95.70
46898;DHT22;32646;50.958;6.258;2023-02-15T11:18:57;12.70;95.90
46898;DHT22;32646;50.958;6.258;2023-02-15T11:21:37;12.70;96.50
46898;DHT22;32646;50.958;6.258;2023-02-15T11:24:10;12.80;95.50
46898;DHT22;32646;50.958;6.258;2023-02-15T11:26:45;13.20;95.50
46898;DHT22;32646;50.958;6.258;2023-02-15T11:29:25;13.60;94.60
46898;DHT22;32646;50.958;6.258;2023-02-15T11:32:01;13.90;94.70
46898;DHT22;32646;50.958;6.258;2023-02-15T11:34:40;13.30;95.80
46898;DHT22;32646;50.958;6.258;2023-02-15T11:37:18;13.10;94.60
46898;DHT22;32646;50.958;6.258;2023-02-15T11:39:46;13.30;94.10
46898;DHT22;32646;50.958;6.258;2023-02-15T11:42:15;13.90;95.50
46898;DHT22;32646;50.958;6.258;2023-02-15T11:47:24;14.20;92.50
46898;DHT22;32646;50.958;6.258;2023-02-15T11:49:53;13.90;96.50
46898;DHT22;32646;50.958;6.258;2023-02-15T11:52:20;15.00;94.50
46898;DHT22;32646;50.958;6.258;2023-02-15T11:54:51;14.60;93.00
46898;DHT22;32646;50.958;6.258;2023-02-15T11:57:23;14.80;93.40
46898;DHT22;32646;50.958;6.258;2023-02-15T12:00:06;14.30;92.30
46898;DHT22;32646;50.958;6.258;2023-02-15T12:02:37;14.70;94.10
46898;DHT22;32646;50.958;6.258;2023-02-15T12:05:13;14.20;94.30
46898;DHT22;32646;50.958;6.258;2023-02-15T12:07:48;14.50;93.40
46898;DHT22;32646;50.958;6.258;2023-02-15T12:10:26;14.50;93.10
46898;DHT22;32646;50.958;6.258;2023-02-15T12:15:44;14.70;93.60
46898;DHT22;32646;50.958;6.258;2023-02-15T12:18:37;15.10;90.80
46898;DHT22;32646;50.958;6.258;2023-02-15T12:21:14;14.90;91.50
46898;DHT22;32646;50.958;6.258;2023-02-15T12:23:46;14.60;91.40
46898;DHT22;32646;50.958;6.258;2023-02-15T12:26:14;15.40;92.50
46898;DHT22;32646;50.958;6.258;2023-02-15T12:28:43;16.00;92.50
46898;DHT22;32646;50.958;6.258;2023-02-15T12:33:47;15.10;91.40
46898;DHT22;32646;50.958;6.258;2023-02-15T12:36:21;15.20;90.40
46898;DHT22;32646;50.958;6.258;2023-02-15T12:41:34;16.10;90.80
46898;DHT22;32646;50.958;6.258;2023-02-15T12:44:21;16.30;91.10
46898;DHT22;32646;50.958;6.258;2023-02-15T12:47:04;16.70;88.60
46898;DHT22;32646;50.958;6.258;2023-02-15T12:49:32;17.60;88.40
46898;DHT22;32646;50.958;6.258;2023-02-15T12:52:02;16.90;87.90
46898;DHT22;32646;50.958;6.258;2023-02-15T12:57:27;16.50;90.60
46898;DHT22;32646;50.958;6.258;2023-02-15T12:59:56;16.80;88.40
46898;DHT22;32646;50.958;6.258;2023-02-15T13:02:30;17.30;90.00
46898;DHT22;32646;50.958;6.258;2023-02-15T13:05:39;16.40;89.50
46898;DHT22;32646;50.958;6.258;2023-02-15T13:08:12;16.40;90.00
46898;DHT22;32646;50.958;6.258;2023-02-15T13:13:31;15.40;91.00
46898;DHT22;32646;50.958;6.258;2023-02-15T13:16:02;17.10;89.60
46898;DHT22;32646;50.958;6.258;2023-02-15T13:18:31;17.30;87.90
46898;DHT22;32646;50.958;6.258;2023-02-15T13:21:06;16.60;86.80
46898;DHT22;32646;50.958;6.258;2023-02-15T13:23:36;16.30;89.60
46898;DHT22;32646;50.958;6.258;2023-02-15T13:26:05;16.20;87.90
46898;DHT22;32646;50.958;6.258;2023-02-15T13:28:40;16.10;87.70
46898;DHT22;32646;50.958;6.258;2023-02-15T13:31:17;15.70;90.10
46898;DHT22;32646;50.958;6.258;2023-02-15T13:33:54;16.20;90.00
46898;DHT22;32646;50.958;6.258;2023-02-15T13:39:27;17.00;88.90
46898;DHT22;32646;50.958;6.258;2023-02-15T13:42:22;17.80;86.40
46898;DHT22;32646;50.958;6.258;2023-02-15T13:53:14;16.40;89.60
46898;DHT22;32646;50.958;6.258;2023-02-15T13:59:19;16.10;90.00
46898;DHT22;32646;50.958;6.258;2023-02-15T14:01:45;15.90;89.40
46898;DHT22;32646;50.958;6.258;2023-02-15T14:07:30;15.80;89.30
46898;DHT22;32646;50.958;6.258;2023-02-15T14:10:11;16.10;90.20
46898;DHT22;32646;50.958;6.258;2023-02-15T14:17:53;15.70;91.10
46898;DHT22;32646;50.958;6.258;2023-02-15T14:20:36;15.60;91.60
46898;DHT22;32646;50.958;6.258;2023-02-15T14:25:42;15.70;91.70
46898;DHT22;32646;50.958;6.258;2023-02-15T14:30:48;15.30;91.50
46898;DHT22;32646;50.958;6.258;2023-02-15T14:33:38;15.20;91.80
46898;DHT22;32646;50.958;6.258;2023-02-15T14:36:07;14.90;93.20
46898;DHT22;32646;50.958;6.258;2023-02-15T14:38:53;14.60;93.60
46898;DHT22;32646;50.958;6.258;2023-02-15T14:41:43;14.30;94.10
46898;DHT22;32646;50.958;6.258;2023-02-15T14:47:10;13.90;96.50
46898;DHT22;32646;50.958;6.258;2023-02-15T14:49:39;13.80;98.60
46898;DHT22;32646;50.958;6.258;2023-02-15T14:52:10;13.70;98.90
46898;DHT22;32646;50.958;6.258;2023-02-15T14:59:43;13.50;99.90
46898;DHT22;32646;50.958;6.258;2023-02-15T15:02:17;13.30;99.90
46898;DHT22;32646;50.958;6.258;2023-02-15T15:05:02;13.20;99.90
46898;DHT22;32646;50.958;6.258;2023-02-15T15:12:54;12.80;99.90
46898;DHT22;32646;50.958;6.258;2023-02-15T15:20:49;12.70;99.90
46898;DHT22;32646;50.958;6.258;2023-02-15T15:25:49;12.60;99.90
46898;DHT22;32646;50.958;6.258;2023-02-15T15:31:20;12.50;99.90
46898;DHT22;32646;50.958;6.258;2023-02-15T15:34:04;12.20;99.90
46898;DHT22;32646;50.958;6.258;2023-02-15T15:45:08;11.80;99.90
46898;DHT22;32646;50.958;6.258;2023-02-15T15:50:33;11.60;99.90
46898;DHT22;32646;50.958;6.258;2023-02-15T15:53:01;11.60;99.90
46898;DHT22;32646;50.958;6.258;2023-02-15T15:55:30;11.60;99.90
46898;DHT22;32646;50.958;6.258;2023-02-15T15:58:04;11.60;99.90
46898;DHT22;32646;50.958;6.258;2023-02-15T16:00:41;11.40;99.90
46898;DHT22;32646;50.958;6.258;2023-02-15T16:03:23;11.30;99.90
46898;DHT22;32646;50.958;6.258;2023-02-15T16:05:50;11.20;99.90
46898;DHT22;32646;50.958;6.258;2023-02-15T16:08:26;11.00;99.90
46898;DHT22;32646;50.958;6.258;2023-02-15T16:10:53;10.90;99.90
46898;DHT22;32646;50.958;6.258;2023-02-15T16:13:20;10.80;99.90
46898;DHT22;32646;50.958;6.258;2023-02-15T16:15:49;10.70;99.90
46898;DHT22;32646;50.958;6.258;2023-02-15T16:18:17;10.70;99.90
46898;DHT22;32646;50.958;6.258;2023-02-15T16:21:21;10.50;99.90
46898;DHT22;32646;50.958;6.258;2023-02-15T16:24:21;10.40;99.90
46898;DHT22;32646;50.958;6.258;2023-02-15T16:27:07;10.20;99.90
46898;DHT22;32646;50.958;6.258;2023-02-15T16:29:36;10.10;99.90
46898;DHT22;32646;50.958;6.258;2023-02-15T16:32:05;10.00;99.90
46898;DHT22;32646;50.958;6.258;2023-02-15T16:34:32;9.80;99.90
46898;DHT22;32646;50.958;6.258;2023-02-15T16:37:16;9.80;99.90
46898;DHT22;32646;50.958;6.258;2023-02-15T16:39:44;9.70;99.90
46898;DHT22;32646;50.958;6.258;2023-02-15T16:42:11;9.60;99.90
46898;DHT22;32646;50.958;6.258;2023-02-15T16:44:39;9.40;99.90
46898;DHT22;32646;50.958;6.258;2023-02-15T16:47:19;9.30;99.90
46898;DHT22;32646;50.958;6.258;2023-02-15T16:49:49;9.10;99.90
46898;DHT22;32646;50.958;6.258;2023-02-15T16:52:35;8.90;99.90
46898;DHT22;32646;50.958;6.258;2023-02-15T16:55:03;8.90;99.90
46898;DHT22;32646;50.958;6.258;2023-02-15T16:57:36;8.80;99.90
46898;DHT22;32646;50.958;6.258;2023-02-15T17:00:06;8.80;99.90
46898;DHT22;32646;50.958;6.258;2023-02-15T17:02:34;8.80;99.90
46898;DHT22;32646;50.958;6.258;2023-02-15T17:05:21;8.90;99.90
46898;DHT22;32646;50.958;6.258;2023-02-15T17:10:41;8.80;99.90
46898;DHT22;32646;50.958;6.258;2023-02-15T17:13:15;8.60;99.90
46898;DHT22;32646;50.958;6.258;2023-02-15T17:15:44;8.60;99.90
46898;DHT22;32646;50.958;6.258;2023-02-15T17:18:33;8.50;99.90
46898;DHT22;32646;50.958;6.258;2023-02-15T17:21:12;8.20;99.90
46898;DHT22;32646;50.958;6.258;2023-02-15T17:23:45;8.10;99.90
46898;DHT22;32646;50.958;6.258;2023-02-15T17:26:22;8.00;99.90
46898;DHT22;32646;50.958;6.258;2023-02-15T17:28:55;7.90;99.90
46898;DHT22;32646;50.958;6.258;2023-02-15T17:31:25;7.80;99.90
46898;DHT22;32646;50.958;6.258;2023-02-15T17:33:52;7.70;99.90
46898;DHT22;32646;50.958;6.258;2023-02-15T17:36:21;7.50;99.90
46898;DHT22;32646;50.958;6.258;2023-02-15T17:41:43;7.20;99.90
46898;DHT22;32646;50.958;6.258;2023-02-15T17:44:09;7.00;99.90
46898;DHT22;32646;50.958;6.258;2023-02-15T17:46:37;6.90;99.90
46898;DHT22;32646;50.958;6.258;2023-02-15T17:49:03;6.80;99.90
46898;DHT22;32646;50.958;6.258;2023-02-15T17:51:31;6.70;99.90
46898;DHT22;32646;50.958;6.258;2023-02-15T17:53:58;6.60;99.90
46898;DHT22;32646;50.958;6.258;2023-02-15T17:56:24;6.50;99.90
46898;DHT22;32646;50.958;6.258;2023-02-15T17:58:51;6.50;99.90
46898;DHT22;32646;50.958;6.258;2023-02-15T18:01:19;6.40;99.90
46898;DHT22;32646;50.958;6.258;2023-02-15T18:03:49;6.40;99.90
46898;DHT22;32646;50.958;6.258;2023-02-15T18:06:15;6.30;99.90
46898;DHT22;32646;50.958;6.258;2023-02-15T18:08:42;6.30;99.90
46898;DHT22;32646;50.958;6.258;2023-02-15T18:11:09;6.30;99.90
46898;DHT22;32646;50.958;6.258;2023-02-15T18:13:36;6.20;99.90
46898;DHT22;32646;50.958;6.258;2023-02-15T18:16:03;6.10;99.90
46898;DHT22;32646;50.958;6.258;2023-02-15T18:18:29;6.10;99.90
46898;DHT22;32646;50.958;6.258;2023-02-15T18:20:56;6.10;99.90
46898;DHT22;32646;50.958;6.258;2023-02-15T18:23:22;6.10;99.90
46898;DHT22;32646;50.958;6.258;2023-02-15T18:25:49;6.10;99.90
46898;DHT22;32646;50.958;6.258;2023-02-15T18:28:15;6.00;99.90
46898;DHT22;32646;50.958;6.258;2023-02-15T18:30:42;6.10;99.90
46898;DHT22;32646;50.958;6.258;2023-02-15T18:33:37;6.20;99.90
46898;DHT22;32646;50.958;6.258;2023-02-15T18:36:06;6.30;99.90